createdAt,value
2023-05-05T00:00:12.326Z,101.07
2023-05-05T00:01:12.395Z,100.40
2023-05-05T00:02:12.479Z,100.23
2023-05-05T00:03:12.589Z,100.98
2023-05-05T00:04:12.583Z,100.94
2023-05-05T00:05:12.590Z,98.95
2023-05-05T00:06:12.669Z,99.81
2023-05-05T00:07:12.722Z,100.54
2023-05-05T00:08:12.778Z,101.09
2023-05-05T00:09:12.834Z,101.11
2023-05-05T00:10:12.910Z,100.62
2023-05-05T00:11:12.979Z,101.60
2023-05-05T00:12:13.018Z,101.26
2023-05-05T00:13:13.181Z,100.88
2023-05-05T00:14:13.121Z,100.48
2023-05-05T00:15:13.198Z,99.57
2023-05-05T00:16:13.265Z,100.43
2023-05-05T00:17:13.393Z,99.65
2023-05-05T00:18:13.357Z,99.64
2023-05-05T00:19:13.343Z,101.37
2023-05-05T00:20:13.768Z,100.87
2023-05-05T00:21:13.368Z,99.96
2023-05-05T00:22:13.378Z,98.62
2023-05-05T00:23:13.400Z,100.07
2023-05-05T00:24:13.451Z,100.51
2023-05-05T00:25:13.498Z,99.36
2023-05-05T00:26:13.563Z,98.84
2023-05-05T00:27:13.640Z,98.67
2023-05-05T00:28:13.692Z,98.78
2023-05-05T00:29:13.732Z,97.92
2023-05-05T00:30:13.798Z,98.93
2023-05-05T00:31:13.867Z,98.71
2023-05-05T00:32:13.888Z,98.81
2023-05-05T00:33:13.978Z,98.50
2023-05-05T00:34:14.016Z,97.98
2023-05-05T00:35:14.099Z,97.97
2023-05-05T00:36:14.132Z,97.19
2023-05-05T00:37:14.193Z,98.06
2023-05-05T00:38:14.269Z,96.83
2023-05-05T00:39:14.280Z,97.07
2023-05-05T00:40:14.298Z,96.14
2023-05-05T00:41:14.311Z,97.16
2023-05-05T00:42:14.304Z,97.62
2023-05-05T00:43:14.326Z,95.61
2023-05-05T00:44:14.312Z,94.11
2023-05-05T00:45:14.355Z,95.13
2023-05-05T00:46:14.384Z,95.11
2023-05-05T00:47:14.378Z,94.66
2023-05-05T00:48:14.378Z,94.70
2023-05-05T00:49:14.402Z,94.88
2023-05-05T00:50:14.372Z,94.32
2023-05-05T00:51:14.387Z,95.75
2023-05-05T00:52:14.432Z,94.04
2023-05-05T00:53:14.436Z,95.37
2023-05-05T00:54:14.429Z,94.53
2023-05-05T00:55:14.447Z,94.35
2023-05-05T00:56:14.468Z,95.70
2023-05-05T00:57:14.469Z,94.32
2023-05-05T00:58:14.505Z,94.75
2023-05-05T00:59:14.478Z,94.07
2023-05-05T01:00:14.498Z,94.18
2023-05-05T01:01:14.517Z,95.09
2023-05-05T01:02:14.504Z,93.65
2023-05-05T01:03:14.634Z,93.86
2023-05-05T01:04:14.573Z,92.69
2023-05-05T01:05:14.555Z,92.74
2023-05-05T01:06:14.593Z,93.68
2023-05-05T01:07:14.613Z,93.28
2023-05-05T01:08:14.669Z,92.45
2023-05-05T01:09:14.729Z,92.52
2023-05-05T01:10:20.177Z,91.88
2023-05-05T01:11:15.778Z,92.05
2023-05-05T01:12:14.785Z,92.19
2023-05-05T01:13:14.853Z,92.08
2023-05-05T01:14:14.772Z,92.70
2023-05-05T01:15:14.777Z,91.33
2023-05-05T01:16:14.834Z,91.53
2023-05-05T01:17:14.716Z,90.50
2023-05-05T01:18:14.728Z,91.27
2023-05-05T01:19:14.698Z,88.71
2023-05-05T01:20:14.694Z,91.39
2023-05-05T01:21:14.765Z,90.12
2023-05-05T01:22:14.792Z,89.08
2023-05-05T01:23:14.864Z,91.22
2023-05-05T01:24:14.912Z,90.70
2023-05-05T01:25:14.981Z,90.79
2023-05-05T01:26:15.055Z,90.04
2023-05-05T01:27:15.103Z,90.17
2023-05-05T01:28:15.165Z,89.15
2023-05-05T01:29:15.181Z,88.57
2023-05-05T01:30:15.269Z,88.75
2023-05-05T01:31:15.406Z,89.75
2023-05-05T01:32:15.357Z,87.51
2023-05-05T01:33:15.367Z,88.34
2023-05-05T01:34:15.352Z,86.47
2023-05-05T01:35:15.381Z,87.48
2023-05-05T01:36:15.383Z,87.40
2023-05-05T01:37:15.444Z,86.94
2023-05-05T01:38:15.510Z,86.81
2023-05-05T01:39:15.573Z,88.75
2023-05-05T01:40:15.615Z,87.31
2023-05-05T01:41:15.683Z,88.87
2023-05-05T01:42:15.748Z,87.36
2023-05-05T01:43:15.805Z,88.52
2023-05-05T01:44:15.837Z,87.33
2023-05-05T01:45:15.891Z,87.41
2023-05-05T01:46:16.110Z,87.29
2023-05-05T01:47:16.033Z,87.16
2023-05-05T01:48:16.077Z,88.35
2023-05-05T01:49:16.110Z,86.35
2023-05-05T01:50:16.151Z,88.36
2023-05-05T01:51:16.166Z,85.95
2023-05-05T01:52:16.155Z,86.43
2023-05-05T01:53:16.157Z,87.09
2023-05-05T01:54:16.205Z,85.74
2023-05-05T01:55:16.207Z,86.08
2023-05-05T01:56:16.207Z,85.50
2023-05-05T01:57:16.210Z,85.73
2023-05-05T01:58:16.224Z,85.08
2023-05-05T01:59:16.227Z,85.96
2023-05-05T02:00:16.238Z,84.55
2023-05-05T02:01:16.274Z,84.75
2023-05-05T02:02:16.298Z,84.20
2023-05-05T02:03:16.391Z,85.24
2023-05-05T02:04:16.259Z,85.17
2023-05-05T02:05:16.280Z,84.62
2023-05-05T02:06:16.282Z,85.15
2023-05-05T02:07:16.317Z,83.75
2023-05-05T02:08:16.290Z,84.40
2023-05-05T02:09:16.325Z,82.35
2023-05-05T02:10:16.308Z,84.21
2023-05-05T02:11:16.345Z,84.05
2023-05-05T02:12:16.345Z,81.68
2023-05-05T02:13:16.498Z,82.93
2023-05-05T02:14:16.379Z,84.48
2023-05-05T02:15:16.371Z,83.25
2023-05-05T02:16:16.433Z,83.75
2023-05-05T02:17:16.393Z,81.60
2023-05-05T02:18:16.395Z,83.60
2023-05-05T02:19:16.406Z,83.24
2023-05-05T02:20:16.394Z,81.89
2023-05-05T02:21:16.429Z,81.55
2023-05-05T02:22:16.459Z,81.55
2023-05-05T02:23:16.440Z,82.20
2023-05-05T02:24:16.466Z,82.02
2023-05-05T02:25:16.471Z,82.72
2023-05-05T02:26:16.490Z,83.85
2023-05-05T02:27:16.480Z,82.75
2023-05-05T02:28:16.503Z,81.46
2023-05-05T02:29:16.505Z,83.54
2023-05-05T02:30:16.499Z,82.76
2023-05-05T02:31:16.558Z,81.91
2023-05-05T02:32:16.520Z,81.22
2023-05-05T02:33:16.559Z,80.92
2023-05-05T02:34:16.553Z,81.10
2023-05-05T02:35:16.545Z,81.55
2023-05-05T02:36:16.586Z,80.71
2023-05-05T02:37:16.580Z,80.23
2023-05-05T02:38:16.603Z,81.16
2023-05-05T02:39:16.618Z,80.58
2023-05-05T02:40:16.601Z,80.16
2023-05-05T02:41:16.682Z,80.34
2023-05-05T02:42:16.688Z,81.97
2023-05-05T02:43:16.808Z,79.17
2023-05-05T02:44:16.739Z,78.69
2023-05-05T02:45:16.758Z,77.53
2023-05-05T02:46:16.790Z,77.31
2023-05-05T02:47:16.799Z,78.55
2023-05-05T02:48:16.839Z,78.28
2023-05-05T02:49:16.875Z,77.52
2023-05-05T02:50:16.889Z,77.41
2023-05-05T02:51:16.893Z,76.61
2023-05-05T02:52:16.904Z,78.96
2023-05-05T02:53:16.902Z,77.42
2023-05-05T02:54:16.946Z,77.46
2023-05-05T02:55:16.941Z,76.31
2023-05-05T02:56:16.924Z,77.30
2023-05-05T02:57:16.944Z,76.62
2023-05-05T02:58:16.952Z,79.30
2023-05-05T02:59:17.011Z,78.68
2023-05-05T03:00:17.060Z,79.71
2023-05-05T03:01:17.088Z,79.55
2023-05-05T03:02:17.086Z,81.16
2023-05-05T03:03:17.149Z,80.18
2023-05-05T03:04:17.086Z,79.82
2023-05-05T03:05:17.093Z,81.68
2023-05-05T03:06:17.167Z,79.90
2023-05-05T03:07:17.157Z,80.20
2023-05-05T03:08:17.213Z,79.12
2023-05-05T03:09:17.246Z,80.96
2023-05-05T03:10:17.312Z,82.49
2023-05-05T03:11:17.350Z,79.71
2023-05-05T03:12:17.383Z,81.25
2023-05-05T03:13:17.433Z,81.60
2023-05-05T03:14:17.501Z,82.92
2023-05-05T03:15:17.508Z,82.66
2023-05-05T03:16:17.610Z,81.45
2023-05-05T03:17:17.621Z,82.65
2023-05-05T03:18:17.698Z,82.09
2023-05-05T03:19:17.697Z,81.38
2023-05-05T03:20:17.753Z,83.45
2023-05-05T03:21:17.793Z,82.89
2023-05-05T03:22:17.854Z,81.92
2023-05-05T03:23:17.850Z,82.12
2023-05-05T03:24:17.881Z,82.48
2023-05-05T03:25:17.933Z,82.22
2023-05-05T03:26:17.999Z,81.78
2023-05-05T03:27:18.014Z,82.05
2023-05-05T03:28:18.054Z,81.17
2023-05-05T03:29:18.034Z,80.39
2023-05-05T03:30:18.053Z,81.05
2023-05-05T03:31:18.134Z,81.14
2023-05-05T03:32:18.098Z,81.95
2023-05-05T03:33:18.114Z,81.23
2023-05-05T03:34:18.119Z,82.02
2023-05-05T03:35:18.094Z,82.06
2023-05-05T03:36:18.163Z,79.40
2023-05-05T03:37:18.143Z,79.21
2023-05-05T03:38:18.146Z,80.02
2023-05-05T03:39:18.191Z,80.52
2023-05-05T03:40:18.175Z,79.41
2023-05-05T03:41:18.225Z,79.97
2023-05-05T03:42:18.250Z,79.03
2023-05-05T03:43:18.254Z,78.57
2023-05-05T03:44:18.210Z,78.48
2023-05-05T03:45:18.251Z,79.10
2023-05-05T03:46:18.368Z,79.05
2023-05-05T03:47:18.274Z,77.63
2023-05-05T03:48:18.329Z,80.44
2023-05-05T03:49:18.356Z,78.22
2023-05-05T03:50:18.354Z,78.67
2023-05-05T03:51:18.406Z,78.17
2023-05-05T03:52:18.429Z,80.43
2023-05-05T03:53:18.477Z,79.61
2023-05-05T03:54:18.502Z,79.40
2023-05-05T03:55:18.526Z,77.78
2023-05-05T03:56:18.571Z,79.15
2023-05-05T03:57:18.602Z,77.68
2023-05-05T03:58:18.624Z,78.06
2023-05-05T03:59:18.670Z,78.71
2023-05-05T04:00:18.667Z,77.08
2023-05-05T04:01:18.670Z,77.16
2023-05-05T04:02:19.015Z,77.99
2023-05-05T04:03:18.885Z,77.38
2023-05-05T04:04:18.852Z,77.62
2023-05-05T04:05:18.838Z,78.22
2023-05-05T04:06:18.882Z,76.73
2023-05-05T04:07:18.885Z,76.05
2023-05-05T04:08:18.906Z,78.33
2023-05-05T04:09:18.945Z,76.71
2023-05-05T04:10:18.982Z,76.44
2023-05-05T04:11:18.998Z,76.91
2023-05-05T04:12:19.057Z,75.56
2023-05-05T04:13:19.099Z,77.91
2023-05-05T04:14:19.225Z,74.34
2023-05-05T04:15:19.077Z,75.10
2023-05-05T04:16:19.136Z,76.42
2023-05-05T04:17:19.098Z,77.12
2023-05-05T04:18:19.109Z,76.87
2023-05-05T04:19:19.159Z,76.16
2023-05-05T04:20:19.188Z,75.64
2023-05-05T04:21:19.205Z,75.28
2023-05-05T04:22:19.240Z,75.23
2023-05-05T04:23:19.282Z,74.68
2023-05-05T04:24:19.334Z,76.70
2023-05-05T04:25:19.380Z,75.39
2023-05-05T04:26:19.405Z,77.48
2023-05-05T04:27:19.415Z,75.62
2023-05-05T04:28:21.628Z,74.89
2023-05-05T04:29:19.599Z,75.32
2023-05-05T04:30:19.624Z,75.24
2023-05-05T04:31:19.694Z,75.77
2023-05-05T04:32:19.671Z,74.69
2023-05-05T04:33:19.648Z,73.50
2023-05-05T04:34:19.659Z,74.78
2023-05-05T04:35:19.709Z,74.09
2023-05-05T04:36:19.771Z,75.51
2023-05-05T04:37:19.787Z,74.77
2023-05-05T04:38:19.861Z,73.68
2023-05-05T04:39:19.820Z,73.24
2023-05-05T04:40:19.858Z,74.09
2023-05-05T04:41:19.878Z,73.36
2023-05-05T04:42:19.922Z,73.82
2023-05-05T04:43:19.942Z,73.99
2023-05-05T04:44:19.955Z,74.43
2023-05-05T04:45:20.016Z,73.49
2023-05-05T04:46:20.064Z,72.17
2023-05-05T04:47:20.061Z,73.97
2023-05-05T04:48:20.105Z,73.38
2023-05-05T04:49:20.110Z,73.21
2023-05-05T04:50:20.153Z,72.69
2023-05-05T04:51:20.201Z,73.12
2023-05-05T04:52:20.194Z,74.13
2023-05-05T04:53:20.226Z,73.19
2023-05-05T04:54:20.271Z,73.44
2023-05-05T04:55:20.285Z,72.27
2023-05-05T04:56:20.324Z,73.91
2023-05-05T04:57:20.339Z,72.62
2023-05-05T04:58:20.409Z,72.80
2023-05-05T04:59:20.421Z,70.27
2023-05-05T05:00:20.435Z,72.54
2023-05-05T05:01:27.956Z,71.23
2023-05-05T05:02:20.461Z,71.50
2023-05-05T05:03:20.485Z,71.82
2023-05-05T05:04:20.433Z,72.82
2023-05-05T05:05:20.388Z,72.09
2023-05-05T05:06:20.408Z,73.60
2023-05-05T05:07:20.399Z,72.40
2023-05-05T05:08:20.411Z,72.42
2023-05-05T05:09:20.393Z,69.81
2023-05-05T05:10:20.383Z,71.83
2023-05-05T05:11:20.367Z,71.93
2023-05-05T05:12:20.391Z,70.81
2023-05-05T05:13:20.428Z,71.56
2023-05-05T05:14:20.371Z,68.88
2023-05-05T05:15:20.407Z,69.74
2023-05-05T05:16:20.418Z,68.36
2023-05-05T05:17:20.374Z,66.99
2023-05-05T05:18:20.325Z,68.43
2023-05-05T05:19:20.304Z,69.60
2023-05-05T05:20:20.361Z,67.31
2023-05-05T05:21:20.313Z,67.85
2023-05-05T05:22:20.301Z,66.98
2023-05-05T05:23:20.282Z,67.02
2023-05-05T05:24:20.280Z,67.55
2023-05-05T05:25:20.273Z,68.22
2023-05-05T05:26:20.290Z,66.51
2023-05-05T05:27:20.281Z,65.72
2023-05-05T05:28:20.244Z,65.51
2023-05-05T05:30:20.564Z,25.00
2023-05-05T05:31:20.605Z,25.00
2023-05-05T05:32:20.501Z,25.00
2023-05-05T05:33:20.535Z,25.00
2023-05-05T05:34:20.527Z,25.00
2023-05-05T05:35:20.500Z,27.01
2023-05-05T05:36:20.568Z,28.17
2023-05-05T05:37:20.514Z,27.09
2023-05-05T05:38:20.568Z,27.15
2023-05-05T05:39:20.467Z,31.21
2023-05-05T05:40:20.500Z,31.33
2023-05-05T05:41:20.484Z,30.98
2023-05-05T05:42:20.454Z,23.07
2023-05-05T05:43:20.449Z,27.30
2023-05-05T05:44:20.426Z,25.99
2023-05-05T05:45:20.480Z,25.00
2023-05-05T05:46:27.532Z,34.23
2023-05-05T05:47:20.755Z,34.97
2023-05-05T05:48:20.412Z,37.77
2023-05-05T05:49:20.439Z,40.29
2023-05-05T05:50:20.403Z,42.13
2023-05-05T05:51:20.407Z,39.19
2023-05-05T05:52:20.419Z,32.90
2023-05-05T05:53:20.421Z,25.00
2023-05-05T05:54:20.348Z,26.72
2023-05-05T05:55:20.354Z,29.61
2023-05-05T05:56:20.379Z,27.99
2023-05-05T05:57:20.390Z,26.22
2023-05-05T05:58:20.349Z,36.68
2023-05-05T05:59:20.362Z,51.06
2023-05-05T06:00:20.330Z,57.76
2023-05-05T06:01:20.354Z,57.74
2023-05-05T06:02:20.416Z,65.33
2023-05-05T06:03:20.445Z,69.77
2023-05-05T06:04:20.303Z,75.54
2023-05-05T06:05:20.304Z,77.47
2023-05-05T06:06:20.286Z,82.30
2023-05-05T06:07:20.331Z,78.53
2023-05-05T06:08:20.286Z,89.89
2023-05-05T06:09:20.266Z,93.39
2023-05-05T06:10:27.859Z,100.16
2023-05-05T06:11:21.272Z,100.42
2023-05-05T06:12:20.250Z,101.85
2023-05-05T06:13:20.265Z,103.46
2023-05-05T06:14:20.287Z,109.80
2023-05-05T06:15:20.237Z,120.92
2023-05-05T06:16:20.276Z,122.77
2023-05-05T06:17:20.223Z,126.65
2023-05-05T06:18:20.284Z,127.68
2023-05-05T06:19:20.190Z,126.98
2023-05-05T06:20:20.203Z,130.38
2023-05-05T06:21:20.227Z,133.52
2023-05-05T06:22:20.189Z,138.08
2023-05-05T06:23:20.172Z,145.68
2023-05-05T06:24:20.771Z,147.17
2023-05-05T06:25:20.165Z,150.52
2023-05-05T06:26:20.167Z,150.71
2023-05-05T06:27:20.136Z,160.24
2023-05-05T06:28:20.273Z,163.78
2023-05-05T06:29:20.199Z,165.80
2023-05-05T06:30:20.247Z,168.10
2023-05-05T06:31:20.315Z,172.82
2023-05-05T06:32:20.328Z,174.94
2023-05-05T06:33:20.367Z,179.05
2023-05-05T06:34:20.369Z,181.73
2023-05-05T06:35:20.404Z,185.18
2023-05-05T06:36:20.511Z,185.07
2023-05-05T06:37:20.533Z,145.31
2023-05-05T06:38:20.533Z,139.87
2023-05-05T06:39:20.518Z,154.67
2023-05-05T06:40:20.542Z,157.75
2023-05-05T06:41:20.602Z,159.86
2023-05-05T06:42:20.631Z,168.60
2023-05-05T06:43:20.670Z,171.94
2023-05-05T06:44:20.700Z,179.13
2023-05-05T06:45:20.719Z,181.17
2023-05-05T06:46:20.843Z,187.35
2023-05-05T06:47:20.813Z,191.60
2023-05-05T06:48:21.282Z,210.24
2023-05-05T06:49:20.926Z,217.96
2023-05-05T06:50:20.951Z,216.14
2023-05-05T06:51:20.933Z,220.46
2023-05-05T06:52:20.978Z,218.51
2023-05-05T06:53:21.285Z,210.93
2023-05-05T06:54:21.021Z,214.37
2023-05-05T06:55:21.068Z,216.96
2023-05-05T06:56:21.176Z,213.92
2023-05-05T06:57:21.153Z,212.35
2023-05-05T06:58:21.334Z,204.87
2023-05-05T06:59:21.207Z,203.47
2023-05-05T07:00:21.215Z,198.11
2023-05-05T07:01:21.316Z,193.50
2023-05-05T07:02:21.313Z,128.16
2023-05-05T07:03:21.421Z,119.74
2023-05-05T07:04:22.318Z,95.81
2023-05-05T07:05:21.350Z,65.41
2023-05-05T07:06:21.298Z,70.96
2023-05-05T07:07:21.326Z,100.59
2023-05-05T07:08:21.341Z,106.58
2023-05-05T07:09:21.370Z,68.89
2023-05-05T07:10:21.392Z,82.21
2023-05-05T07:11:21.438Z,98.19
2023-05-05T07:12:21.481Z,97.75
2023-05-05T07:13:21.525Z,98.48
2023-05-05T07:14:24.128Z,84.56
2023-05-05T07:15:28.850Z,47.81
2023-05-05T07:16:22.631Z,38.74
2023-05-05T07:17:21.596Z,48.18
2023-05-05T07:18:21.615Z,48.16
2023-05-05T07:19:21.534Z,49.94
2023-05-05T07:20:21.557Z,59.25
2023-05-05T07:21:21.548Z,63.02
2023-05-05T07:22:21.557Z,51.67
2023-05-05T07:23:21.480Z,24.15
2023-05-05T07:24:21.538Z,8.76
2023-05-05T07:25:21.532Z,31.51
2023-05-05T07:26:21.526Z,20.66
2023-05-05T07:27:21.497Z,32.58
2023-05-05T07:28:21.490Z,16.10
2023-05-05T07:29:21.421Z,45.10
2023-05-05T07:30:21.656Z,65.28
2023-05-05T07:31:21.464Z,84.47
2023-05-05T07:32:21.682Z,100.96
2023-05-05T07:33:21.811Z,92.38
2023-05-05T07:34:21.568Z,81.02
2023-05-05T07:35:21.636Z,97.70
2023-05-05T07:36:21.653Z,103.93
2023-05-05T07:37:21.662Z,108.48
2023-05-05T07:38:21.643Z,119.27
2023-05-05T07:39:23.307Z,141.47
2023-05-05T07:40:21.676Z,158.48
2023-05-05T07:41:21.622Z,178.18
2023-05-05T07:42:21.635Z,191.72
2023-05-05T07:43:21.662Z,208.54
2023-05-05T07:44:21.677Z,214.61
2023-05-05T07:45:21.743Z,225.61
2023-05-05T07:46:21.855Z,239.03
2023-05-05T07:47:21.930Z,242.92
2023-05-05T07:48:21.945Z,249.50
2023-05-05T07:49:21.974Z,250.00
2023-05-05T07:50:21.994Z,250.00
2023-05-05T07:51:22.056Z,249.38
2023-05-05T07:52:33.075Z,249.58
2023-05-05T07:53:23.127Z,250.01
2023-05-05T07:54:22.113Z,252.02
2023-05-05T07:55:22.104Z,257.06
2023-05-05T07:56:22.097Z,262.10
2023-05-05T07:57:22.100Z,273.06
2023-05-05T07:58:22.117Z,252.11
2023-05-05T07:59:22.075Z,246.17
2023-05-05T08:00:22.106Z,225.68
2023-05-05T08:01:22.091Z,232.25
2023-05-05T08:02:22.191Z,230.27
2023-05-05T08:03:22.292Z,231.16
2023-05-05T08:04:22.307Z,232.42
2023-05-05T08:05:22.327Z,233.32
2023-05-05T08:06:22.419Z,235.65
2023-05-05T08:07:22.311Z,234.34
2023-05-05T08:08:22.395Z,235.75
2023-05-05T08:09:22.393Z,240.60
2023-05-05T08:10:22.457Z,243.71
2023-05-05T08:11:22.441Z,242.63
2023-05-05T08:12:22.519Z,239.49
2023-05-05T08:13:22.552Z,236.45
2023-05-05T08:14:22.604Z,232.32
2023-05-05T08:15:23.296Z,230.48
2023-05-05T08:16:22.664Z,226.24
2023-05-05T08:17:22.666Z,223.65
2023-05-05T08:18:22.637Z,218.38
2023-05-05T08:19:28.793Z,220.53
2023-05-05T08:20:23.776Z,220.64
2023-05-05T08:21:22.642Z,214.03
2023-05-05T08:22:22.675Z,210.97
2023-05-05T08:23:22.593Z,204.65
2023-05-05T08:24:22.713Z,200.44
2023-05-05T08:25:22.551Z,196.29
2023-05-05T08:26:22.576Z,199.28
2023-05-05T08:27:23.341Z,196.96
2023-05-05T08:28:22.785Z,198.30
2023-05-05T08:29:22.537Z,196.94
2023-05-05T08:30:22.557Z,189.93
2023-05-05T08:31:22.588Z,142.47
2023-05-05T08:32:22.519Z,147.68
2023-05-05T08:33:22.840Z,166.01
2023-05-05T08:34:22.535Z,161.66
2023-05-05T08:35:22.530Z,166.87
2023-05-05T08:36:22.668Z,169.81
2023-05-05T08:37:22.694Z,165.58
2023-05-05T08:38:22.690Z,166.16
2023-05-05T08:39:22.746Z,162.65
2023-05-05T08:40:22.863Z,149.87
2023-05-05T08:41:22.820Z,144.11
2023-05-05T08:42:36.091Z,146.03
2023-05-05T08:43:23.886Z,146.23
2023-05-05T08:44:23.084Z,146.05
2023-05-05T08:45:22.803Z,135.84
2023-05-05T08:46:22.856Z,130.43
2023-05-05T08:47:22.820Z,124.68
2023-05-05T08:48:22.793Z,119.22
2023-05-05T08:49:22.820Z,120.46
2023-05-05T08:50:22.823Z,91.06
2023-05-05T08:51:22.759Z,64.80
2023-05-05T08:52:22.836Z,75.02
2023-05-05T08:53:22.825Z,71.28
2023-05-05T08:54:22.750Z,65.22
2023-05-05T08:55:22.751Z,71.32
2023-05-05T08:56:22.731Z,78.31
2023-05-05T08:57:22.762Z,80.98
2023-05-05T08:58:22.849Z,89.24
2023-05-05T08:59:22.861Z,100.16
2023-05-05T09:00:22.995Z,108.52
2023-05-05T09:01:22.958Z,110.12
2023-05-05T09:02:22.964Z,120.91
2023-05-05T09:03:22.960Z,114.87
2023-05-05T09:04:22.978Z,112.01
2023-05-05T09:05:23.005Z,107.59
2023-05-05T09:06:23.094Z,113.09
2023-05-05T09:07:23.130Z,114.78
2023-05-05T09:08:23.400Z,116.87
2023-05-05T09:09:23.268Z,118.77
2023-05-05T09:10:23.313Z,121.82
2023-05-05T09:11:23.330Z,126.75
2023-05-05T09:12:23.374Z,123.44
2023-05-05T09:13:23.421Z,117.62
2023-05-05T09:14:23.487Z,122.81
2023-05-05T09:15:23.610Z,112.84
2023-05-05T09:16:23.609Z,101.08
2023-05-05T09:17:23.758Z,107.32
2023-05-05T09:18:23.748Z,106.74
2023-05-05T09:19:23.786Z,87.17
2023-05-05T09:20:23.839Z,64.47
2023-05-05T09:21:23.879Z,61.22
2023-05-05T09:22:24.057Z,68.16
2023-05-05T09:23:23.990Z,73.21
2023-05-05T09:24:24.131Z,77.43
2023-05-05T09:25:24.139Z,79.09
2023-05-05T09:26:24.186Z,62.00
2023-05-05T09:27:24.256Z,57.79
2023-05-05T09:28:24.311Z,50.70
2023-05-05T09:29:24.379Z,50.52
2023-05-05T09:30:24.457Z,38.56
2023-05-05T09:31:24.615Z,25.10
2023-05-05T09:32:24.667Z,24.69
2023-05-05T09:33:24.844Z,29.48
2023-05-05T09:34:24.720Z,25.71
2023-05-05T09:35:24.775Z,27.15
2023-05-05T09:36:24.790Z,26.37
2023-05-05T09:37:24.855Z,34.90
2023-05-05T09:38:24.922Z,33.45
2023-05-05T09:39:24.957Z,33.60
2023-05-05T09:40:25.113Z,33.02
2023-05-05T09:41:25.083Z,16.06
2023-05-05T09:42:25.134Z,17.23
2023-05-05T09:43:25.396Z,23.90
2023-05-05T09:44:25.278Z,17.44
2023-05-05T09:45:25.314Z,5.63
2023-05-05T09:46:25.480Z,9.25
2023-05-05T09:47:29.738Z,0.00
2023-05-05T09:48:25.465Z,0.00
2023-05-05T09:49:25.865Z,0.00
2023-05-05T09:50:25.391Z,0.00
2023-05-05T09:51:25.372Z,0.00
2023-05-05T09:52:25.396Z,3.83
2023-05-05T09:53:25.408Z,16.24
2023-05-05T09:54:25.421Z,19.36
2023-05-05T09:55:25.376Z,31.23
2023-05-05T09:56:25.424Z,41.19
2023-05-05T09:57:25.339Z,43.17
2023-05-05T09:58:25.390Z,43.96
2023-05-05T09:59:25.345Z,39.35
2023-05-05T10:00:25.345Z,43.85
2023-05-05T10:01:25.407Z,43.48
2023-05-05T10:02:25.335Z,51.02
2023-05-05T10:03:25.314Z,56.98
2023-05-05T10:04:25.445Z,50.87
2023-05-05T10:05:25.414Z,50.78
2023-05-05T10:06:25.310Z,51.99
2023-05-05T10:07:25.335Z,47.55
2023-05-05T10:08:25.261Z,49.09
2023-05-05T10:09:25.281Z,59.72
2023-05-05T10:10:26.468Z,54.19
2023-05-05T10:11:25.244Z,52.35
2023-05-05T10:12:25.311Z,43.55
2023-05-05T10:13:25.240Z,43.86
2023-05-05T10:14:25.248Z,43.29
2023-05-05T10:15:25.247Z,30.96
2023-05-05T10:16:26.340Z,42.13
2023-05-05T10:17:25.409Z,44.40
2023-05-05T10:18:25.543Z,35.25
2023-05-05T10:19:25.445Z,28.24
2023-05-05T10:20:25.408Z,25.00
2023-05-05T10:21:25.411Z,28.16
2023-05-05T10:22:25.463Z,28.72
2023-05-05T10:23:25.401Z,26.19
2023-05-05T10:24:25.443Z,30.94
2023-05-05T10:25:25.455Z,37.84
2023-05-05T10:26:25.424Z,54.16
2023-05-05T10:27:25.432Z,71.07
2023-05-05T10:28:25.508Z,85.71
2023-05-05T10:29:25.842Z,94.53
2023-05-05T10:30:25.458Z,104.69
2023-05-05T10:31:26.774Z,115.17
2023-05-05T10:32:51.527Z,124.92
2023-05-05T10:33:31.164Z,125.15
2023-05-05T10:34:26.521Z,125.38
2023-05-05T10:35:25.442Z,127.84
2023-05-05T10:36:25.425Z,132.41
2023-05-05T10:37:25.417Z,140.36
2023-05-05T10:38:26.742Z,153.85
2023-05-05T10:39:25.430Z,161.63
2023-05-05T10:40:25.410Z,165.70
2023-05-05T10:41:25.384Z,170.03
2023-05-05T10:42:25.388Z,176.67
2023-05-05T10:43:25.416Z,179.36
2023-05-05T10:44:25.400Z,182.88
2023-05-05T10:45:25.426Z,185.50
2023-05-05T10:46:25.404Z,191.85
2023-05-05T10:47:25.340Z,193.74
2023-05-05T10:48:25.368Z,195.88
2023-05-05T10:49:25.320Z,198.51
2023-05-05T10:50:25.331Z,202.29
2023-05-05T10:51:38.649Z,205.02
2023-05-05T10:52:26.329Z,205.25
2023-05-05T10:53:25.310Z,206.28
2023-05-05T10:54:25.371Z,207.99
2023-05-05T10:55:25.279Z,212.02
2023-05-05T10:56:25.283Z,217.63
2023-05-05T10:57:25.269Z,219.45
2023-05-05T10:58:25.270Z,220.88
2023-05-05T10:59:25.239Z,222.65
2023-05-05T11:00:26.887Z,222.83
2023-05-05T11:01:25.260Z,224.35
2023-05-05T11:02:25.339Z,223.07
2023-05-05T11:03:25.300Z,224.13
2023-05-05T11:04:25.216Z,226.40
2023-05-05T11:05:25.192Z,229.12
2023-05-05T11:06:25.211Z,230.72
2023-05-05T11:07:25.198Z,233.00
2023-05-05T11:08:25.261Z,232.73
2023-05-05T11:09:25.272Z,235.47
2023-05-05T11:10:25.311Z,234.83
2023-05-05T11:11:25.337Z,234.60
2023-05-05T11:12:25.395Z,235.55
2023-05-05T11:13:25.430Z,236.14
2023-05-05T11:14:25.414Z,236.51
2023-05-05T11:15:25.438Z,237.00
2023-05-05T11:16:25.461Z,237.94
2023-05-05T11:17:25.441Z,239.10
2023-05-05T11:18:25.471Z,239.61
2023-05-05T11:19:25.479Z,241.04
2023-05-05T11:20:25.450Z,241.01
2023-05-05T11:21:25.456Z,243.68
2023-05-05T11:22:25.459Z,244.43
2023-05-05T11:23:25.469Z,244.90
2023-05-05T11:24:25.485Z,245.48
2023-05-05T11:25:25.450Z,245.98
2023-05-05T11:26:25.503Z,245.14
2023-05-05T11:27:25.548Z,246.75
2023-05-05T11:28:25.545Z,247.11
2023-05-05T11:29:25.534Z,247.06
2023-05-05T11:30:25.606Z,248.25
2023-05-05T11:31:25.618Z,248.97
2023-05-05T11:32:25.713Z,249.46
2023-05-05T11:33:25.658Z,247.74
2023-05-05T11:34:25.921Z,248.62
2023-05-05T11:35:25.714Z,247.96
2023-05-05T11:36:25.719Z,248.67
2023-05-05T11:37:25.712Z,249.10
2023-05-05T11:38:25.706Z,250.00
2023-05-05T11:39:25.707Z,249.04
2023-05-05T11:40:25.697Z,248.57
2023-05-05T11:41:25.707Z,248.29
2023-05-05T11:42:25.828Z,248.88
2023-05-05T11:43:25.717Z,249.37
2023-05-05T11:44:25.685Z,249.21
2023-05-05T11:45:25.752Z,249.10
2023-05-05T11:46:25.711Z,249.78
2023-05-05T11:47:25.679Z,249.91
2023-05-05T11:48:25.805Z,248.22
2023-05-05T11:49:25.695Z,248.02
2023-05-05T11:50:25.885Z,249.25
2023-05-05T11:51:25.678Z,248.92
2023-05-05T11:52:25.684Z,249.60
2023-05-05T11:53:25.628Z,248.44
2023-05-05T11:54:25.681Z,248.96
2023-05-05T11:55:25.652Z,249.24
2023-05-05T11:56:25.620Z,248.38
2023-05-05T11:57:25.637Z,247.74
2023-05-05T11:58:25.657Z,249.19
2023-05-05T11:59:25.632Z,248.55
2023-05-05T12:00:25.636Z,249.75
2023-05-05T12:01:25.647Z,249.01
2023-05-05T12:02:25.674Z,248.55
2023-05-05T12:03:25.798Z,248.06
2023-05-05T12:04:25.806Z,246.87
2023-05-05T12:05:25.637Z,247.34
2023-05-05T12:06:25.652Z,247.60
2023-05-05T12:07:25.643Z,247.56
2023-05-05T12:08:25.601Z,247.05
2023-05-05T12:09:25.636Z,247.75
2023-05-05T12:10:25.652Z,247.36
2023-05-05T12:11:25.672Z,248.67
2023-05-05T12:12:25.743Z,246.42
2023-05-05T12:13:26.024Z,246.66
2023-05-05T12:14:25.872Z,245.72
2023-05-05T12:15:25.879Z,247.75
2023-05-05T12:16:25.957Z,246.84
2023-05-05T12:17:25.989Z,247.72
2023-05-05T12:18:26.031Z,247.40
2023-05-05T12:19:26.077Z,247.22
2023-05-05T12:20:26.232Z,247.51
2023-05-05T12:21:26.126Z,247.62
2023-05-05T12:22:26.185Z,248.24
2023-05-05T12:23:26.248Z,247.28
2023-05-05T12:24:26.263Z,247.17
2023-05-05T12:25:26.308Z,246.32
2023-05-05T12:26:26.362Z,247.88
2023-05-05T12:27:26.428Z,247.96
2023-05-05T12:28:26.452Z,247.42
2023-05-05T12:29:26.484Z,248.69
2023-05-05T12:30:26.519Z,247.89
2023-05-05T12:31:26.578Z,247.81
2023-05-05T12:32:26.601Z,247.26
2023-05-05T12:33:26.634Z,246.81
2023-05-05T12:34:26.651Z,246.33
2023-05-05T12:35:26.700Z,246.11
2023-05-05T12:36:28.654Z,244.97
2023-05-05T12:37:26.747Z,245.52
2023-05-05T12:38:26.755Z,244.91
2023-05-05T12:39:26.748Z,245.14
2023-05-05T12:40:26.826Z,243.91
2023-05-05T12:41:26.810Z,242.75
2023-05-05T12:42:26.845Z,243.96
2023-05-05T12:43:26.917Z,243.69
2023-05-05T12:44:26.977Z,243.67